首页
METAR-TAF:

METAR-TAF

机场 :

Kelly Field Annex

圣安东尼奥, 得克萨斯州, 美国

纬度: 29-23N, 经度: 098-35W, 海拔: 210米

当前天气观测

该预报发布于53分钟前的23:55 UTC
风速10节,风向东南
温度 35°C
湿度 39%
气压 1006 hPa
能見度: 16.1公里
天空无云

METAR: KSKF 202355Z AUTO 13010KT 10SM CLR 35/19 A2971 RMK AO2 SLP052 T03510194 10366 20320 57016 $

时间: 19:48 (00:48 UTC)

预报

该预报发布于6小时和48分钟前的18:00 UTC
预报有效从20日的 18点(UTC)到 21日的 24点(UTC)
风速12节,风向,有时为20节阵风
能见度10公里或以上
多云层高于3000英尺
成为
从 20日的 23点(UTC)到 20日的 24点(UTC)
风速9节,风向南转南东
能见度10公里或以上
天空无云
成为
从 21日的 05点(UTC)到 21日的 06点(UTC)
风速6节,风向东南
能見度: 9000
多云层高于1500英尺
阴天层高于2500英尺
短暂存在
从 21日的 09点(UTC)到 21日的 14点(UTC)
阴天层高于900英尺
成为
从 21日的 13点(UTC)到 21日的 14点(UTC)
风速12节,风向,有时为18节阵风
能见度10公里或以上
多云层高于2000英尺
成为
从 21日的 18点(UTC)到 21日的 19点(UTC)
风速15节,风向,有时为25节阵风
能见度10公里或以上
天空无云

TAF: KSKF 201800Z 2018/2124 17012G20KT 9999 BKN030 QNH2971INS BECMG 2023/2024 15009KT 9999 SKC QNH2971INS BECMG 2105/2106 14006KT 9000 HZ BKN015 OVC025 QNH2976INS TEMPO 2109/2114 OVC009 BECMG 2113/2114 18012G18KT 9999 NSW BKN020 510022 QNH2982INS BECMG 2118/2119 17015G25KT 9999 SKC 510022 QNH2964INS TX36/2021Z TN24/2112Z

超过4000个机场的气象观测和天气预报(METAR&TAF报告)。

可查询的气象台以黄色和红色小点在地图上表示。

将鼠标移到小点上方,可查看气象台名称。

然后点击查看天气观测和预报。

如需切换地图:点击带黑十字的绿色按钮放大地图;点击带横线的绿色按钮缩小地图;或者点击绿色箭头查看邻近地区的地图。


METAR-TAF: